sensor_id;sensor_type;location;lat;lon;timestamp;P1;durP1;ratioP1;P2;durP2;ratioP2
69005;SDS011;56061;51.748;19.620;2022-10-16T02:13:44;14.10;;;8.70;;
69005;SDS011;56061;51.748;19.620;2022-10-16T02:16:13;15.20;;;8.20;;
69005;SDS011;56061;51.748;19.620;2022-10-16T02:18:42;15.30;;;8.80;;
69005;SDS011;56061;51.748;19.620;2022-10-16T02:21:24;16.30;;;8.40;;
69005;SDS011;56061;51.748;19.620;2022-10-16T02:24:02;14.90;;;8.00;;
69005;SDS011;56061;51.748;19.620;2022-10-16T02:27:03;14.00;;;7.70;;
69005;SDS011;56061;51.748;19.620;2022-10-16T02:29:39;13.30;;;7.90;;
69005;SDS011;56061;51.748;19.620;2022-10-16T02:32:17;15.20;;;8.80;;
69005;SDS011;56061;51.748;19.620;2022-10-16T02:34:48;13.20;;;8.00;;
69005;SDS011;56061;51.748;19.620;2022-10-16T02:37:17;16.60;;;8.50;;
69005;SDS011;56061;51.748;19.620;2022-10-16T02:39:45;16.70;;;8.20;;
69005;SDS011;56061;51.748;19.620;2022-10-16T02:42:12;16.00;;;8.60;;
69005;SDS011;56061;51.748;19.620;2022-10-16T02:44:40;12.90;;;7.40;;
69005;SDS011;56061;51.748;19.620;2022-10-16T02:47:06;13.30;;;7.70;;
69005;SDS011;56061;51.748;19.620;2022-10-16T02:49:33;13.90;;;7.40;;
69005;SDS011;56061;51.748;19.620;2022-10-16T02:51:59;12.50;;;7.30;;
69005;SDS011;56061;51.748;19.620;2022-10-16T02:54:26;14.10;;;7.60;;
69005;SDS011;56061;51.748;19.620;2022-10-16T02:56:52;13.90;;;7.80;;
69005;SDS011;56061;51.748;19.620;2022-10-16T02:59:19;12.80;;;7.50;;
69005;SDS011;56061;51.748;19.620;2022-10-16T03:01:45;13.60;;;7.70;;
69005;SDS011;56061;51.748;19.620;2022-10-16T03:04:12;16.00;;;8.30;;
69005;SDS011;56061;51.748;19.620;2022-10-16T03:06:38;12.10;;;7.30;;
69005;SDS011;56061;51.748;19.620;2022-10-16T03:09:04;14.50;;;8.00;;
69005;SDS011;56061;51.748;19.620;2022-10-16T03:11:31;13.40;;;7.40;;
69005;SDS011;56061;51.748;19.620;2022-10-16T03:13:57;15.00;;;8.60;;
69005;SDS011;56061;51.748;19.620;2022-10-16T03:16:24;16.30;;;8.60;;
69005;SDS011;56061;51.748;19.620;2022-10-16T03:18:50;14.00;;;8.60;;
69005;SDS011;56061;51.748;19.620;2022-10-16T03:21:17;17.50;;;9.30;;
69005;SDS011;56061;51.748;19.620;2022-10-16T03:23:43;16.60;;;9.40;;
69005;SDS011;56061;51.748;19.620;2022-10-16T03:26:10;16.60;;;9.80;;
69005;SDS011;56061;51.748;19.620;2022-10-16T03:28:36;14.90;;;8.50;;
69005;SDS011;56061;51.748;19.620;2022-10-16T03:31:02;14.00;;;8.80;;
69005;SDS011;56061;51.748;19.620;2022-10-16T03:33:29;15.30;;;8.60;;
69005;SDS011;56061;51.748;19.620;2022-10-16T03:35:55;15.80;;;9.10;;
69005;SDS011;56061;51.748;19.620;2022-10-16T03:38:22;14.80;;;8.90;;
69005;SDS011;56061;51.748;19.620;2022-10-16T03:40:48;18.10;;;9.20;;
69005;SDS011;56061;51.748;19.620;2022-10-16T03:43:15;17.70;;;9.30;;
69005;SDS011;56061;51.748;19.620;2022-10-16T03:45:42;17.40;;;10.20;;
69005;SDS011;56061;51.748;19.620;2022-10-16T03:48:09;15.30;;;9.20;;
69005;SDS011;56061;51.748;19.620;2022-10-16T03:50:35;14.60;;;8.90;;
69005;SDS011;56061;51.748;19.620;2022-10-16T03:53:02;16.30;;;9.10;;
69005;SDS011;56061;51.748;19.620;2022-10-16T03:55:28;14.50;;;8.50;;
69005;SDS011;56061;51.748;19.620;2022-10-16T03:57:55;15.40;;;9.10;;
69005;SDS011;56061;51.748;19.620;2022-10-16T04:00:21;17.90;;;9.10;;
69005;SDS011;56061;51.748;19.620;2022-10-16T04:02:48;15.90;;;9.60;;
69005;SDS011;56061;51.748;19.620;2022-10-16T04:05:15;17.10;;;9.60;;
69005;SDS011;56061;51.748;19.620;2022-10-16T04:07:41;19.40;;;10.20;;
69005;SDS011;56061;51.748;19.620;2022-10-16T04:10:08;16.10;;;9.90;;
69005;SDS011;56061;51.748;19.620;2022-10-16T04:12:34;15.20;;;9.10;;
69005;SDS011;56061;51.748;19.620;2022-10-16T04:15:01;16.90;;;9.40;;
69005;SDS011;56061;51.748;19.620;2022-10-16T04:17:27;15.40;;;9.50;;
69005;SDS011;56061;51.748;19.620;2022-10-16T04:19:54;17.20;;;9.70;;
69005;SDS011;56061;51.748;19.620;2022-10-16T04:22:21;16.50;;;10.20;;
69005;SDS011;56061;51.748;19.620;2022-10-16T04:24:47;17.40;;;9.60;;
69005;SDS011;56061;51.748;19.620;2022-10-16T04:27:13;16.50;;;9.50;;
69005;SDS011;56061;51.748;19.620;2022-10-16T04:29:40;18.70;;;10.30;;
69005;SDS011;56061;51.748;19.620;2022-10-16T04:32:08;17.70;;;10.50;;
69005;SDS011;56061;51.748;19.620;2022-10-16T04:34:35;17.80;;;9.20;;
69005;SDS011;56061;51.748;19.620;2022-10-16T04:37:02;16.40;;;10.10;;
69005;SDS011;56061;51.748;19.620;2022-10-16T04:39:28;16.20;;;9.30;;
69005;SDS011;56061;51.748;19.620;2022-10-16T04:41:55;19.50;;;10.60;;
69005;SDS011;56061;51.748;19.620;2022-10-16T04:44:21;17.80;;;9.80;;
69005;SDS011;56061;51.748;19.620;2022-10-16T04:46:50;16.80;;;10.30;;
69005;SDS011;56061;51.748;19.620;2022-10-16T04:49:17;17.40;;;9.70;;
69005;SDS011;56061;51.748;19.620;2022-10-16T04:51:43;20.00;;;10.50;;
69005;SDS011;56061;51.748;19.620;2022-10-16T04:54:10;17.20;;;9.70;;
69005;SDS011;56061;51.748;19.620;2022-10-16T04:56:36;15.30;;;9.40;;
69005;SDS011;56061;51.748;19.620;2022-10-16T04:59:09;15.50;;;9.40;;
69005;SDS011;56061;51.748;19.620;2022-10-16T05:01:35;15.90;;;9.80;;
69005;SDS011;56061;51.748;19.620;2022-10-16T05:04:02;16.90;;;9.80;;
69005;SDS011;56061;51.748;19.620;2022-10-16T05:06:28;15.70;;;9.60;;
69005;SDS011;56061;51.748;19.620;2022-10-16T05:08:55;17.30;;;9.70;;
69005;SDS011;56061;51.748;19.620;2022-10-16T05:11:21;16.90;;;10.40;;
69005;SDS011;56061;51.748;19.620;2022-10-16T05:13:48;16.80;;;9.80;;
69005;SDS011;56061;51.748;19.620;2022-10-16T05:16:18;17.30;;;10.10;;
69005;SDS011;56061;51.748;19.620;2022-10-16T05:18:45;18.50;;;9.30;;
69005;SDS011;56061;51.748;19.620;2022-10-16T05:21:11;19.20;;;10.70;;
69005;SDS011;56061;51.748;19.620;2022-10-16T05:23:38;18.30;;;10.10;;
69005;SDS011;56061;51.748;19.620;2022-10-16T05:26:04;20.10;;;11.40;;
69005;SDS011;56061;51.748;19.620;2022-10-16T05:28:31;19.10;;;11.00;;
69005;SDS011;56061;51.748;19.620;2022-10-16T05:30:57;18.70;;;10.70;;
69005;SDS011;56061;51.748;19.620;2022-10-16T05:33:25;19.40;;;11.80;;
69005;SDS011;56061;51.748;19.620;2022-10-16T05:35:52;18.40;;;10.70;;
69005;SDS011;56061;51.748;19.620;2022-10-16T05:38:18;17.30;;;10.30;;
69005;SDS011;56061;51.748;19.620;2022-10-16T05:40:52;16.00;;;9.50;;
69005;SDS011;56061;51.748;19.620;2022-10-16T05:43:19;16.00;;;10.10;;
69005;SDS011;56061;51.748;19.620;2022-10-16T05:46:00;20.10;;;10.80;;
69005;SDS011;56061;51.748;19.620;2022-10-16T05:48:28;19.20;;;10.30;;
69005;SDS011;56061;51.748;19.620;2022-10-16T05:51:00;17.60;;;9.70;;
69005;SDS011;56061;51.748;19.620;2022-10-16T05:53:31;17.50;;;10.20;;
69005;SDS011;56061;51.748;19.620;2022-10-16T05:55:59;15.30;;;9.30;;
69005;SDS011;56061;51.748;19.620;2022-10-16T05:58:34;15.20;;;9.00;;
69005;SDS011;56061;51.748;19.620;2022-10-16T06:01:04;16.60;;;10.00;;
69005;SDS011;56061;51.748;19.620;2022-10-16T06:03:33;18.50;;;10.30;;
69005;SDS011;56061;51.748;19.620;2022-10-16T06:06:16;16.70;;;9.70;;
69005;SDS011;56061;51.748;19.620;2022-10-16T06:08:46;17.90;;;10.00;;
69005;SDS011;56061;51.748;19.620;2022-10-16T06:11:20;19.00;;;11.10;;
69005;SDS011;56061;51.748;19.620;2022-10-16T06:13:52;19.30;;;10.20;;
69005;SDS011;56061;51.748;19.620;2022-10-16T06:16:20;17.40;;;9.70;;
69005;SDS011;56061;51.748;19.620;2022-10-16T06:18:47;16.30;;;9.70;;
69005;SDS011;56061;51.748;19.620;2022-10-16T06:21:19;14.00;;;8.90;;
69005;SDS011;56061;51.748;19.620;2022-10-16T06:23:48;16.40;;;9.30;;
69005;SDS011;56061;51.748;19.620;2022-10-16T06:26:17;16.60;;;9.80;;
69005;SDS011;56061;51.748;19.620;2022-10-16T06:28:47;17.50;;;10.00;;
69005;SDS011;56061;51.748;19.620;2022-10-16T06:31:14;16.80;;;10.40;;
69005;SDS011;56061;51.748;19.620;2022-10-16T06:33:41;17.20;;;10.20;;
69005;SDS011;56061;51.748;19.620;2022-10-16T06:36:10;16.30;;;9.30;;
69005;SDS011;56061;51.748;19.620;2022-10-16T06:38:41;16.20;;;9.60;;
69005;SDS011;56061;51.748;19.620;2022-10-16T06:41:14;17.00;;;9.70;;
69005;SDS011;56061;51.748;19.620;2022-10-16T06:43:43;19.10;;;9.90;;
69005;SDS011;56061;51.748;19.620;2022-10-16T06:46:16;18.80;;;10.00;;
69005;SDS011;56061;51.748;19.620;2022-10-16T06:48:44;14.10;;;8.50;;
69005;SDS011;56061;51.748;19.620;2022-10-16T06:51:22;16.00;;;9.50;;
69005;SDS011;56061;51.748;19.620;2022-10-16T06:53:52;17.70;;;9.50;;
69005;SDS011;56061;51.748;19.620;2022-10-16T06:56:29;17.00;;;8.90;;
69005;SDS011;56061;51.748;19.620;2022-10-16T06:58:57;15.60;;;9.10;;
69005;SDS011;56061;51.748;19.620;2022-10-16T07:01:25;17.20;;;10.80;;
69005;SDS011;56061;51.748;19.620;2022-10-16T07:03:52;15.30;;;8.90;;
69005;SDS011;56061;51.748;19.620;2022-10-16T07:06:21;18.40;;;10.30;;
69005;SDS011;56061;51.748;19.620;2022-10-16T07:08:50;23.00;;;12.20;;
69005;SDS011;56061;51.748;19.620;2022-10-16T07:11:20;18.10;;;10.70;;
69005;SDS011;56061;51.748;19.620;2022-10-16T07:13:49;14.90;;;9.00;;
69005;SDS011;56061;51.748;19.620;2022-10-16T07:16:23;17.20;;;10.10;;
69005;SDS011;56061;51.748;19.620;2022-10-16T07:18:54;18.30;;;10.60;;
69005;SDS011;56061;51.748;19.620;2022-10-16T07:21:28;18.60;;;10.90;;
69005;SDS011;56061;51.748;19.620;2022-10-16T07:23:58;15.10;;;9.00;;
69005;SDS011;56061;51.748;19.620;2022-10-16T07:26:28;16.50;;;9.50;;
69005;SDS011;56061;51.748;19.620;2022-10-16T07:28:57;16.70;;;9.90;;
69005;SDS011;56061;51.748;19.620;2022-10-16T07:31:24;16.60;;;10.40;;
69005;SDS011;56061;51.748;19.620;2022-10-16T07:33:51;17.30;;;9.80;;
69005;SDS011;56061;51.748;19.620;2022-10-16T07:36:20;14.30;;;8.30;;
69005;SDS011;56061;51.748;19.620;2022-10-16T07:38:47;15.00;;;8.60;;
69005;SDS011;56061;51.748;19.620;2022-10-16T07:41:16;18.60;;;10.30;;
69005;SDS011;56061;51.748;19.620;2022-10-16T07:43:48;15.10;;;8.70;;
69005;SDS011;56061;51.748;19.620;2022-10-16T07:46:17;15.00;;;9.00;;
69005;SDS011;56061;51.748;19.620;2022-10-16T07:48:45;15.70;;;8.40;;
69005;SDS011;56061;51.748;19.620;2022-10-16T07:51:15;15.90;;;8.20;;
69005;SDS011;56061;51.748;19.620;2022-10-16T07:53:44;15.70;;;8.70;;
69005;SDS011;56061;51.748;19.620;2022-10-16T07:56:11;12.90;;;8.50;;
69005;SDS011;56061;51.748;19.620;2022-10-16T07:58:38;15.20;;;9.40;;
69005;SDS011;56061;51.748;19.620;2022-10-16T08:01:08;17.00;;;9.50;;
69005;SDS011;56061;51.748;19.620;2022-10-16T08:03:37;18.70;;;10.40;;
69005;SDS011;56061;51.748;19.620;2022-10-16T08:06:04;21.70;;;11.50;;
69005;SDS011;56061;51.748;19.620;2022-10-16T08:08:31;20.20;;;10.00;;
69005;SDS011;56061;51.748;19.620;2022-10-16T08:10:58;19.20;;;10.00;;
69005;SDS011;56061;51.748;19.620;2022-10-16T08:13:25;22.80;;;11.90;;
69005;SDS011;56061;51.748;19.620;2022-10-16T08:15:53;12.80;;;7.50;;
69005;SDS011;56061;51.748;19.620;2022-10-16T08:18:21;15.00;;;8.20;;
69005;SDS011;56061;51.748;19.620;2022-10-16T08:20:55;15.80;;;8.70;;
69005;SDS011;56061;51.748;19.620;2022-10-16T08:23:23;19.40;;;11.10;;
69005;SDS011;56061;51.748;19.620;2022-10-16T08:25:56;28.90;;;16.10;;
69005;SDS011;56061;51.748;19.620;2022-10-16T08:28:27;28.70;;;15.00;;
69005;SDS011;56061;51.748;19.620;2022-10-16T08:30:54;32.90;;;16.70;;
69005;SDS011;56061;51.748;19.620;2022-10-16T08:33:22;32.20;;;15.70;;
69005;SDS011;56061;51.748;19.620;2022-10-16T08:35:52;22.80;;;12.30;;
69005;SDS011;56061;51.748;19.620;2022-10-16T08:38:20;20.20;;;11.00;;
69005;SDS011;56061;51.748;19.620;2022-10-16T08:40:47;23.80;;;12.80;;
69005;SDS011;56061;51.748;19.620;2022-10-16T08:46:09;13.70;;;8.20;;
69005;SDS011;56061;51.748;19.620;2022-10-16T08:48:50;15.30;;;8.30;;
69005;SDS011;56061;51.748;19.620;2022-10-16T08:53:58;23.90;;;12.30;;
69005;SDS011;56061;51.748;19.620;2022-10-16T08:56:28;15.70;;;9.10;;
69005;SDS011;56061;51.748;19.620;2022-10-16T08:58:54;14.40;;;7.60;;
69005;SDS011;56061;51.748;19.620;2022-10-16T09:01:43;14.00;;;8.90;;
69005;SDS011;56061;51.748;19.620;2022-10-16T09:04:43;19.00;;;11.40;;
69005;SDS011;56061;51.748;19.620;2022-10-16T09:07:36;15.60;;;9.30;;
69005;SDS011;56061;51.748;19.620;2022-10-16T09:10:25;15.30;;;8.60;;
69005;SDS011;56061;51.748;19.620;2022-10-16T09:13:01;13.50;;;8.20;;
69005;SDS011;56061;51.748;19.620;2022-10-16T09:15:48;16.50;;;9.50;;
69005;SDS011;56061;51.748;19.620;2022-10-16T09:18:29;16.50;;;9.70;;
69005;SDS011;56061;51.748;19.620;2022-10-16T09:24:00;15.70;;;8.70;;
69005;SDS011;56061;51.748;19.620;2022-10-16T09:26:38;12.80;;;8.20;;
69005;SDS011;56061;51.748;19.620;2022-10-16T09:29:05;13.90;;;7.80;;
69005;SDS011;56061;51.748;19.620;2022-10-16T09:31:36;17.70;;;8.70;;
69005;SDS011;56061;51.748;19.620;2022-10-16T09:34:03;12.70;;;7.30;;
69005;SDS011;56061;51.748;19.620;2022-10-16T09:36:39;18.70;;;10.00;;
69005;SDS011;56061;51.748;19.620;2022-10-16T09:39:11;15.80;;;9.00;;
69005;SDS011;56061;51.748;19.620;2022-10-16T09:41:41;15.50;;;8.70;;
69005;SDS011;56061;51.748;19.620;2022-10-16T09:44:25;11.80;;;7.70;;
69005;SDS011;56061;51.748;19.620;2022-10-16T09:47:16;13.20;;;7.30;;
69005;SDS011;56061;51.748;19.620;2022-10-16T09:49:56;15.90;;;8.80;;
69005;SDS011;56061;51.748;19.620;2022-10-16T09:52:28;12.20;;;7.40;;
69005;SDS011;56061;51.748;19.620;2022-10-16T09:55:13;17.00;;;8.50;;
69005;SDS011;56061;51.748;19.620;2022-10-16T09:57:54;14.10;;;8.00;;
69005;SDS011;56061;51.748;19.620;2022-10-16T10:00:22;16.10;;;8.40;;
69005;SDS011;56061;51.748;19.620;2022-10-16T10:02:51;19.70;;;10.90;;
69005;SDS011;56061;51.748;19.620;2022-10-16T10:05:28;18.50;;;10.20;;
69005;SDS011;56061;51.748;19.620;2022-10-16T10:08:00;13.80;;;8.50;;
69005;SDS011;56061;51.748;19.620;2022-10-16T10:10:37;15.20;;;8.60;;
69005;SDS011;56061;51.748;19.620;2022-10-16T10:13:21;17.60;;;9.10;;
69005;SDS011;56061;51.748;19.620;2022-10-16T10:15:50;14.20;;;8.30;;
69005;SDS011;56061;51.748;19.620;2022-10-16T10:18:19;14.40;;;8.20;;
69005;SDS011;56061;51.748;19.620;2022-10-16T10:21:02;13.30;;;6.90;;
69005;SDS011;56061;51.748;19.620;2022-10-16T10:23:31;11.60;;;7.50;;
69005;SDS011;56061;51.748;19.620;2022-10-16T10:26:20;12.50;;;7.50;;
69005;SDS011;56061;51.748;19.620;2022-10-16T10:32:03;12.30;;;7.50;;
69005;SDS011;56061;51.748;19.620;2022-10-16T10:43:28;12.10;;;6.90;;
69005;SDS011;56061;51.748;19.620;2022-10-16T10:46:34;12.10;;;7.10;;
69005;SDS011;56061;51.748;19.620;2022-10-16T11:01:31;10.50;;;6.20;;
69005;SDS011;56061;51.748;19.620;2022-10-16T11:04:20;13.70;;;7.80;;
69005;SDS011;56061;51.748;19.620;2022-10-16T11:07:04;12.00;;;6.10;;
69005;SDS011;56061;51.748;19.620;2022-10-16T11:10:38;9.80;;;5.70;;
69005;SDS011;56061;51.748;19.620;2022-10-16T11:12:47;9.80;;;5.20;;
69005;SDS011;56061;51.748;19.620;2022-10-16T11:15:28;10.90;;;6.40;;
69005;SDS011;56061;51.748;19.620;2022-10-16T11:18:03;11.40;;;6.10;;
69005;SDS011;56061;51.748;19.620;2022-10-16T11:20:53;10.80;;;5.70;;
69005;SDS011;56061;51.748;19.620;2022-10-16T11:23:42;9.90;;;5.60;;
69005;SDS011;56061;51.748;19.620;2022-10-16T11:26:15;9.70;;;5.20;;
69005;SDS011;56061;51.748;19.620;2022-10-16T11:28:50;9.90;;;6.00;;
69005;SDS011;56061;51.748;19.620;2022-10-16T11:31:44;9.40;;;5.20;;
69005;SDS011;56061;51.748;19.620;2022-10-16T11:34:28;12.50;;;6.60;;
69005;SDS011;56061;51.748;19.620;2022-10-16T11:37:13;11.60;;;5.80;;
69005;SDS011;56061;51.748;19.620;2022-10-16T11:39:45;8.10;;;5.00;;
69005;SDS011;56061;51.748;19.620;2022-10-16T11:42:22;10.10;;;5.10;;
69005;SDS011;56061;51.748;19.620;2022-10-16T11:45:24;8.30;;;6.60;;
69005;SDS011;56061;51.748;19.620;2022-10-16T11:48:10;8.60;;;4.50;;
69005;SDS011;56061;51.748;19.620;2022-10-16T11:50:51;8.10;;;4.70;;
69005;SDS011;56061;51.748;19.620;2022-10-16T11:53:44;8.10;;;4.90;;
69005;SDS011;56061;51.748;19.620;2022-10-16T11:56:25;10.30;;;5.30;;
69005;SDS011;56061;51.748;19.620;2022-10-16T11:59:02;8.80;;;5.20;;
69005;SDS011;56061;51.748;19.620;2022-10-16T12:01:43;10.80;;;6.10;;
69005;SDS011;56061;51.748;19.620;2022-10-16T12:07:04;12.60;;;6.20;;
69005;SDS011;56061;51.748;19.620;2022-10-16T12:09:38;11.30;;;5.80;;
69005;SDS011;56061;51.748;19.620;2022-10-16T12:12:38;9.10;;;5.00;;
69005;SDS011;56061;51.748;19.620;2022-10-16T12:17:52;10.50;;;5.00;;
69005;SDS011;56061;51.748;19.620;2022-10-16T12:20:28;10.20;;;5.00;;
69005;SDS011;56061;51.748;19.620;2022-10-16T12:23:05;8.10;;;4.60;;
69005;SDS011;56061;51.748;19.620;2022-10-16T12:25:37;8.00;;;4.30;;
69005;SDS011;56061;51.748;19.620;2022-10-16T12:30:40;9.40;;;5.10;;
69005;SDS011;56061;51.748;19.620;2022-10-16T12:33:42;11.70;;;5.70;;
69005;SDS011;56061;51.748;19.620;2022-10-16T12:36:14;8.80;;;4.90;;
69005;SDS011;56061;51.748;19.620;2022-10-16T12:38:53;9.30;;;4.70;;
69005;SDS011;56061;51.748;19.620;2022-10-16T12:43:50;8.20;;;4.70;;
69005;SDS011;56061;51.748;19.620;2022-10-16T12:48:44;9.00;;;5.20;;
69005;SDS011;56061;51.748;19.620;2022-10-16T12:54:03;10.30;;;5.20;;
69005;SDS011;56061;51.748;19.620;2022-10-16T13:02:39;15.20;;;7.60;;
69005;SDS011;56061;51.748;19.620;2022-10-16T13:05:24;14.40;;;7.30;;
69005;SDS011;56061;51.748;19.620;2022-10-16T13:08:22;14.00;;;7.80;;
69005;SDS011;56061;51.748;19.620;2022-10-16T13:11:32;11.40;;;7.00;;
69005;SDS011;56061;51.748;19.620;2022-10-16T13:17:32;12.10;;;7.70;;
69005;SDS011;56061;51.748;19.620;2022-10-16T13:23:37;10.60;;;5.70;;
69005;SDS011;56061;51.748;19.620;2022-10-16T13:26:32;11.00;;;5.50;;
69005;SDS011;56061;51.748;19.620;2022-10-16T13:29:07;9.70;;;5.40;;
69005;SDS011;56061;51.748;19.620;2022-10-16T13:31:38;12.90;;;7.30;;
69005;SDS011;56061;51.748;19.620;2022-10-16T13:34:12;10.40;;;6.30;;
69005;SDS011;56061;51.748;19.620;2022-10-16T13:36:46;9.40;;;5.50;;
69005;SDS011;56061;51.748;19.620;2022-10-16T13:39:27;10.00;;;5.60;;
69005;SDS011;56061;51.748;19.620;2022-10-16T13:42:05;8.30;;;5.20;;
69005;SDS011;56061;51.748;19.620;2022-10-16T13:44:44;9.30;;;5.40;;
69005;SDS011;56061;51.748;19.620;2022-10-16T13:47:23;9.80;;;6.50;;
69005;SDS011;56061;51.748;19.620;2022-10-16T13:50:09;10.20;;;6.10;;
69005;SDS011;56061;51.748;19.620;2022-10-16T13:52:39;13.40;;;6.90;;
69005;SDS011;56061;51.748;19.620;2022-10-16T13:55:13;12.30;;;7.00;;
69005;SDS011;56061;51.748;19.620;2022-10-16T13:57:43;76.70;;;39.10;;
69005;SDS011;56061;51.748;19.620;2022-10-16T14:00:36;82.80;;;42.60;;
69005;SDS011;56061;51.748;19.620;2022-10-16T14:03:13;98.10;;;53.80;;
69005;SDS011;56061;51.748;19.620;2022-10-16T14:05:49;46.30;;;26.60;;
69005;SDS011;56061;51.748;19.620;2022-10-16T14:08:25;20.00;;;11.50;;
69005;SDS011;56061;51.748;19.620;2022-10-16T14:10:58;16.90;;;11.40;;
69005;SDS011;56061;51.748;19.620;2022-10-16T14:13:46;17.90;;;11.60;;
69005;SDS011;56061;51.748;19.620;2022-10-16T14:16:39;12.40;;;7.60;;
69005;SDS011;56061;51.748;19.620;2022-10-16T14:19:29;16.40;;;9.80;;
69005;SDS011;56061;51.748;19.620;2022-10-16T14:21:58;13.90;;;8.90;;
69005;SDS011;56061;51.748;19.620;2022-10-16T14:24:34;13.20;;;8.20;;
69005;SDS011;56061;51.748;19.620;2022-10-16T14:27:01;15.00;;;8.60;;
69005;SDS011;56061;51.748;19.620;2022-10-16T14:29:29;14.90;;;9.20;;
69005;SDS011;56061;51.748;19.620;2022-10-16T14:32:04;16.90;;;9.80;;
69005;SDS011;56061;51.748;19.620;2022-10-16T14:34:40;22.00;;;13.00;;
69005;SDS011;56061;51.748;19.620;2022-10-16T14:37:15;21.50;;;15.40;;
69005;SDS011;56061;51.748;19.620;2022-10-16T14:39:54;18.40;;;12.50;;
69005;SDS011;56061;51.748;19.620;2022-10-16T14:42:24;23.80;;;15.80;;
69005;SDS011;56061;51.748;19.620;2022-10-16T14:44:53;24.50;;;17.30;;
69005;SDS011;56061;51.748;19.620;2022-10-16T14:47:23;24.70;;;17.70;;
69005;SDS011;56061;51.748;19.620;2022-10-16T14:49:54;26.50;;;18.40;;
69005;SDS011;56061;51.748;19.620;2022-10-16T14:52:22;29.50;;;19.30;;
69005;SDS011;56061;51.748;19.620;2022-10-16T14:54:49;34.00;;;22.20;;
69005;SDS011;56061;51.748;19.620;2022-10-16T14:57:19;26.50;;;16.70;;
69005;SDS011;56061;51.748;19.620;2022-10-16T14:59:48;32.30;;;21.00;;
69005;SDS011;56061;51.748;19.620;2022-10-16T15:02:30;32.20;;;21.90;;
69005;SDS011;56061;51.748;19.620;2022-10-16T15:05:12;36.40;;;23.60;;
69005;SDS011;56061;51.748;19.620;2022-10-16T15:07:42;31.50;;;19.60;;
69005;SDS011;56061;51.748;19.620;2022-10-16T15:10:09;30.10;;;19.20;;
69005;SDS011;56061;51.748;19.620;2022-10-16T15:12:36;26.20;;;16.50;;
69005;SDS011;56061;51.748;19.620;2022-10-16T15:17:52;25.00;;;15.10;;
69005;SDS011;56061;51.748;19.620;2022-10-16T15:20:24;33.50;;;19.20;;
69005;SDS011;56061;51.748;19.620;2022-10-16T15:22:52;34.00;;;18.50;;
69005;SDS011;56061;51.748;19.620;2022-10-16T15:25:32;26.40;;;16.40;;
69005;SDS011;56061;51.748;19.620;2022-10-16T15:28:08;22.00;;;13.70;;
69005;SDS011;56061;51.748;19.620;2022-10-16T15:30:37;19.60;;;13.20;;
69005;SDS011;56061;51.748;19.620;2022-10-16T15:33:09;16.20;;;10.40;;
69005;SDS011;56061;51.748;19.620;2022-10-16T15:36:05;13.40;;;8.20;;
69005;SDS011;56061;51.748;19.620;2022-10-16T15:38:33;12.20;;;7.90;;
69005;SDS011;56061;51.748;19.620;2022-10-16T15:41:00;13.40;;;8.20;;
69005;SDS011;56061;51.748;19.620;2022-10-16T15:43:27;12.50;;;8.50;;
69005;SDS011;56061;51.748;19.620;2022-10-16T15:46:01;14.20;;;9.00;;
69005;SDS011;56061;51.748;19.620;2022-10-16T15:48:30;18.40;;;12.10;;
69005;SDS011;56061;51.748;19.620;2022-10-16T15:50:57;21.60;;;12.70;;
69005;SDS011;56061;51.748;19.620;2022-10-16T15:53:23;21.90;;;12.50;;
69005;SDS011;56061;51.748;19.620;2022-10-16T15:55:50;18.80;;;9.80;;
69005;SDS011;56061;51.748;19.620;2022-10-16T15:58:17;13.80;;;8.80;;
69005;SDS011;56061;51.748;19.620;2022-10-16T16:00:44;14.10;;;8.30;;
69005;SDS011;56061;51.748;19.620;2022-10-16T16:03:10;15.80;;;9.00;;
69005;SDS011;56061;51.748;19.620;2022-10-16T16:05:38;14.80;;;8.90;;
69005;SDS011;56061;51.748;19.620;2022-10-16T16:08:11;16.90;;;9.60;;
69005;SDS011;56061;51.748;19.620;2022-10-16T16:10:38;16.10;;;9.70;;
69005;SDS011;56061;51.748;19.620;2022-10-16T16:13:04;14.20;;;9.50;;
69005;SDS011;56061;51.748;19.620;2022-10-16T16:15:31;18.00;;;9.80;;
69005;SDS011;56061;51.748;19.620;2022-10-16T16:17:57;15.80;;;10.00;;
69005;SDS011;56061;51.748;19.620;2022-10-16T16:20:24;17.00;;;10.20;;
69005;SDS011;56061;51.748;19.620;2022-10-16T16:22:50;18.80;;;10.90;;
69005;SDS011;56061;51.748;19.620;2022-10-16T16:25:17;19.70;;;12.10;;
69005;SDS011;56061;51.748;19.620;2022-10-16T16:27:43;20.80;;;11.90;;
69005;SDS011;56061;51.748;19.620;2022-10-16T16:30:11;19.50;;;11.40;;
69005;SDS011;56061;51.748;19.620;2022-10-16T16:32:44;18.30;;;12.30;;
69005;SDS011;56061;51.748;19.620;2022-10-16T16:35:11;19.90;;;12.10;;
69005;SDS011;56061;51.748;19.620;2022-10-16T16:37:37;18.70;;;11.30;;
69005;SDS011;56061;51.748;19.620;2022-10-16T16:40:04;19.40;;;11.30;;
69005;SDS011;56061;51.748;19.620;2022-10-16T16:42:31;18.40;;;12.00;;
69005;SDS011;56061;51.748;19.620;2022-10-16T16:44:57;26.30;;;15.70;;
69005;SDS011;56061;51.748;19.620;2022-10-16T16:47:24;24.80;;;15.00;;
69005;SDS011;56061;51.748;19.620;2022-10-16T16:49:51;32.80;;;20.00;;
69005;SDS011;56061;51.748;19.620;2022-10-16T16:52:18;29.80;;;18.90;;
69005;SDS011;56061;51.748;19.620;2022-10-16T16:54:44;29.90;;;17.90;;
69005;SDS011;56061;51.748;19.620;2022-10-16T16:57:19;29.10;;;16.80;;
69005;SDS011;56061;51.748;19.620;2022-10-16T16:59:46;28.00;;;16.70;;
69005;SDS011;56061;51.748;19.620;2022-10-16T17:02:13;31.90;;;17.10;;
69005;SDS011;56061;51.748;19.620;2022-10-16T17:04:39;26.10;;;15.50;;
69005;SDS011;56061;51.748;19.620;2022-10-16T17:07:06;25.70;;;16.30;;
69005;SDS011;56061;51.748;19.620;2022-10-16T17:09:32;26.20;;;15.90;;
69005;SDS011;56061;51.748;19.620;2022-10-16T17:11:59;28.10;;;17.60;;
69005;SDS011;56061;51.748;19.620;2022-10-16T17:14:26;27.00;;;16.80;;
69005;SDS011;56061;51.748;19.620;2022-10-16T17:16:52;29.60;;;18.10;;
69005;SDS011;56061;51.748;19.620;2022-10-16T17:19:19;26.90;;;17.20;;
69005;SDS011;56061;51.748;19.620;2022-10-16T17:21:50;38.30;;;22.90;;
69005;SDS011;56061;51.748;19.620;2022-10-16T17:24:18;35.10;;;22.20;;
69005;SDS011;56061;51.748;19.620;2022-10-16T17:26:46;34.80;;;20.70;;
69005;SDS011;56061;51.748;19.620;2022-10-16T17:29:15;27.80;;;18.70;;
69005;SDS011;56061;51.748;19.620;2022-10-16T17:31:44;38.00;;;23.40;;
69005;SDS011;56061;51.748;19.620;2022-10-16T17:34:11;27.10;;;18.10;;
69005;SDS011;56061;51.748;19.620;2022-10-16T17:36:38;32.20;;;17.50;;
69005;SDS011;56061;51.748;19.620;2022-10-16T17:39:11;35.70;;;21.10;;
69005;SDS011;56061;51.748;19.620;2022-10-16T17:41:39;31.50;;;18.70;;
69005;SDS011;56061;51.748;19.620;2022-10-16T17:44:06;33.20;;;19.60;;
69005;SDS011;56061;51.748;19.620;2022-10-16T17:46:34;34.00;;;19.90;;
69005;SDS011;56061;51.748;19.620;2022-10-16T17:49:06;43.20;;;23.90;;
69005;SDS011;56061;51.748;19.620;2022-10-16T17:51:33;42.00;;;23.70;;
69005;SDS011;56061;51.748;19.620;2022-10-16T17:54:00;36.40;;;21.60;;
69005;SDS011;56061;51.748;19.620;2022-10-16T17:56:28;42.90;;;24.00;;
69005;SDS011;56061;51.748;19.620;2022-10-16T17:58:58;38.90;;;22.90;;
69005;SDS011;56061;51.748;19.620;2022-10-16T18:01:30;39.00;;;23.20;;
69005;SDS011;56061;51.748;19.620;2022-10-16T18:04:01;44.50;;;26.20;;